Mariana — 2ETR4 — position and weather

sailwx.info

Track history (hours):
 
Tides and Currents Weather Stations Pressure Air Temp Water Temp Dewpoint Dewpoint Depression Visibility Wind Speed Wind Dir Waves Ship Positions

Mariana

Last reported at 2017-Sep-07 21:39 UTC. Time now 2017-Sep-24 14:20 UTC.
Position N 27°45' W 016°25'.
Warning: this ship's position is 16 days out of date.

Length 195 m; draft 6.9 m.

Type: Cargo ship. MMSI: 235088073.

Date/timePositionNaut miles runAvg speedWind from/ knotsBaromVisibWave heightAir tempDewpointWater temp
2017-Sep-07 21:39N 27°45' W 016°25'2215.1
2017-Sep-07 20:12N 28°05' W 016°16'315.0
2017-Sep-07 19:58N 28°08' W 016°13'714.9
2017-Sep-07 19:29N 28°13' W 016°08'715.1
2017-Sep-07 19:00N 28°19' W 016°03'714.9
2017-Sep-07 18:30N 28°25' W 015°58'714.5
2017-Sep-07 18:00N 28°30' W 015°52'714.4
2017-Sep-07 17:30N 28°36' W 015°47'713.5
2017-Sep-07 17:00N 28°42' W 015°44'713.7
2017-Sep-07 16:29N 28°49' W 015°42'713.5
2017-Sep-07 16:00N 28°55' W 015°40'713.5
2017-Sep-07 15:30N 29°02' W 015°38'713.6
2017-Sep-07 15:00N 29°08' W 015°36'713.7
2017-Sep-07 14:30N 29°15' W 015°34'713.6
2017-Sep-07 14:00N 29°21' W 015°31'813.4
2017-Sep-07 13:26N 29°29' W 015°29'613.6
2017-Sep-07 13:00N 29°34' W 015°27'1113.6
2017-Sep-07 12:12N 29°45' W 015°23'313.5
2017-Sep-07 11:59N 29°48' W 015°22'20213.9
2017-Sep-06 21:23N 33°02' W 014°16'35814.0
2017-Sep-05 19:46N 38°46' W 012°13'1114.3
2017-Sep-05 19:00N 38°57' W 012°09'814.4
2017-Sep-05 18:26N 39°04' W 012°06'614.6
2017-Sep-05 18:00N 39°10' W 012°04'914.6
2017-Sep-05 17:22N 39°19' W 012°01'614.2
2017-Sep-05 16:56N 39°25' W 011°58'1014.0
2017-Sep-05 16:14N 39°35' W 011°55'514.2
2017-Sep-05 15:51N 39°40' W 011°53'  
2017-Sep-03 11:16N 49°36' W 004°04'411.9
2017-Sep-03 10:57N 49°38' W 003°58'512.2
2017-Sep-03 10:30N 49°40' W 003°50'612.5
2017-Sep-03 10:00N 49°42' W 003°42'612.9
2017-Sep-03 09:30N 49°45' W 003°33'713.1
2017-Sep-03 09:00N 49°48' W 003°24'612.9
2017-Sep-03 08:30N 49°52' W 003°16'612.7
2017-Sep-03 08:00N 49°55' W 003°07'612.5
2017-Sep-03 07:30N 49°58' W 002°59'612.6
2017-Sep-03 07:00N 49°60' W 002°49'612.1
2017-Sep-03 06:30N 50°02' W 002°40'2411.5
2017-Sep-03 04:26N 50°07' W 002°04'511.8
2017-Sep-03 04:00N 50°09' W 001°56'612.4
2017-Sep-03 03:30N 50°10' W 001°47'713.1
2017-Sep-03 02:59N 50°12' W 001°37'713.8
2017-Sep-03 02:28N 50°14' W 001°26'714.4
2017-Sep-03 02:00N 50°16' W 001°16'3315.5
2017-Sep-02 23:54N 50°25' W 000°27'615.1
2017-Sep-02 23:30N 50°27' W 000°18'714.8
2017-Sep-02 23:00N 50°29' W 000°07'714.6
2017-Sep-02 22:30N 50°31' E 000°04'714.3
2017-Sep-02 22:00N 50°33' E 000°15'714.0
2017-Sep-02 21:30N 50°35' E 000°26'713.2
2017-Sep-02 21:00N 50°37' E 000°35'713.2
2017-Sep-02 20:30N 50°41' E 000°44'612.9
2017-Sep-02 20:00N 50°45' E 000°52'612.8
2017-Sep-02 19:30N 50°48' E 000°60'713.1
2017-Sep-02 19:00N 50°53' E 001°07'713.6
2017-Sep-02 18:30N 50°58' E 001°15'714.4
2017-Sep-02 18:00N 51°02' E 001°24'815.7
2017-Sep-02 17:30N 51°07' E 001°34'816.0
2017-Sep-02 17:00N 51°12' E 001°44'815.7
2017-Sep-02 16:31N 51°19' E 001°50'815.0
2017-Sep-02 16:00N 51°25' E 001°57'714.6
2017-Sep-02 15:31N 51°31' E 002°04'714.2
2017-Sep-02 15:00N 51°36' E 002°11'714.0
2017-Sep-02 14:30N 51°42' E 002°19'10513.6
2017-Sep-02 06:45N 53°03' E 004°08'414.5
2017-Sep-02 06:30N 53°05' E 004°13'714.1
2017-Sep-02 05:59N 53°09' E 004°23'714.1
2017-Sep-02 05:31N 53°15' E 004°28'12313.0
2017-Sep-01 20:06N 53°57' E 007°42'211.4
2017-Sep-01 19:54N 53°56' E 007°45'2 5.9
2017-Sep-01 19:30N 53°55' E 007°49'0 0.1
2017-Sep-01 18:47N 53°55' E 007°49'0 0.0
2017-Sep-01 18:23N 53°55' E 007°49'0 0.0
2017-Sep-01 09:05N 53°55' E 007°49'0 0.3
2017-Sep-01 08:53N 53°55' E 007°49'0 0.2
2017-Sep-01 08:29N 53°55' E 007°49'0 0.1
2017-Sep-01 07:53N 53°55' E 007°49'0 0.1
2017-Sep-01 06:32N 53°55' E 007°49'0 0.1
2017-Sep-01 06:11N 53°55' E 007°49'0 0.0
2017-Sep-01 05:47N 53°55' E 007°49'0 0.0
2017-Sep-01 05:20N 53°55' E 007°49'0 0.0
2017-Sep-01 04:17N 53°55' E 007°49'0 0.0
2017-Sep-01 03:59N 53°55' E 007°49'0 0.0
2017-Sep-01 03:11N 53°55' E 007°49'0 0.0
2017-Sep-01 02:56N 53°55' E 007°49'0 0.0
2017-Sep-01 02:29N 53°55' E 007°49'0 0.0
2017-Sep-01 01:59N 53°55' E 007°49'0 0.0
2017-Sep-01 01:08N 53°55' E 007°49'0 0.1
2017-Sep-01 00:56N 53°55' E 007°49'0 0.0
2017-Sep-01 00:05N 53°55' E 007°49'0 0.0
2017-Aug-31 23:56N 53°55' E 007°49'0 0.0
2017-Aug-31 23:29N 53°55' E 007°49'0 0.0
2017-Aug-31 22:59N 53°55' E 007°49'0 0.1
2017-Aug-31 22:29N 53°55' E 007°49'0 0.1
2017-Aug-31 21:59N 53°55' E 007°49'0 0.1
2017-Aug-31 21:29N 53°55' E 007°49'0 0.0
2017-Aug-31 20:44N 53°55' E 007°49'0 0.0
2017-Aug-31 14:05N 53°55' E 007°49'0 0.0
2017-Aug-31 13:47N 53°55' E 007°49'0 0.0
2017-Aug-31 13:29N 53°55' E 007°49'0 0.0
2017-Aug-31 12:35N 53°55' E 007°49'0 0.3
2017-Aug-31 12:26N 53°55' E 007°49'0 0.1
2017-Aug-31 11:56N 53°55' E 007°49'0 0.1
2017-Aug-31 11:29N 53°55' E 007°49'0 0.0
2017-Aug-31 07:50N 53°55' E 007°49'0 0.0
2017-Aug-31 07:23N 53°55' E 007°49'0 0.1
2017-Aug-31 06:50N 53°55' E 007°49'0 0.0
2017-Aug-31 06:26N 53°55' E 007°49'0 0.0
2017-Aug-31 05:59N 53°55' E 007°49'0 0.0
2017-Aug-31 05:29N 53°55' E 007°49'0 0.0
2017-Aug-31 04:32N 53°55' E 007°49'0 0.0
2017-Aug-31 04:23N 53°55' E 007°49'0 0.0
2017-Aug-31 03:56N 53°55' E 007°49'0 0.0
2017-Aug-31 03:29N 53°55' E 007°49'0 0.0
2017-Aug-31 02:53N 53°55' E 007°49'0 0.0
2017-Aug-31 02:29N 53°55' E 007°49'0 0.0
2017-Aug-31 01:59N 53°55' E 007°49'0 0.0
2017-Aug-31 01:29N 53°55' E 007°49'0 0.0
2017-Aug-31 00:53N 53°55' E 007°49'0 0.0
2017-Aug-31 00:29N 53°55' E 007°49'0 0.0
2017-Aug-30 23:59N 53°55' E 007°49'0 0.0
2017-Aug-30 23:29N 53°55' E 007°49'0 0.1
2017-Aug-30 22:56N 53°55' E 007°49'0 0.1
2017-Aug-30 22:29N 53°55' E 007°48'0 0.0
2017-Aug-30 21:56N 53°55' E 007°48'0 0.1
2017-Aug-30 21:29N 53°55' E 007°48'0 0.0
2017-Aug-30 20:59N 53°55' E 007°48'0 0.0
2017-Aug-30 20:29N 53°55' E 007°48'0 0.2
2017-Aug-30 19:59N 53°55' E 007°49'2 3.5
2017-Aug-30 19:30N 53°53' E 007°50'711.2
2017-Aug-30 18:52N 53°51' E 008°01'514.2
2017-Aug-30 18:30N 53°48' E 008°08'714.2
2017-Aug-30 18:00N 53°43' E 008°17'612.4
2017-Aug-30 17:30N 53°39' E 008°25'611.3
2017-Aug-30 17:00N 53°35' E 008°32'4 7.5
2017-Aug-30 16:30N 53°31' E 008°33'4 8.6
2017-Aug-30 16:00N 53°28' E 008°30'510.0
2017-Aug-30 15:31N 53°23' E 008°30'2 4.1
2017-Aug-30 14:58N 53°20' E 008°30'0 0.4
2017-Aug-30 14:25N 53°20' E 008°30'0 0.0
2017-Aug-30 13:58N 53°20' E 008°30'0 0.0
2017-Aug-30 13:28N 53°20' E 008°30'0 0.0
2017-Aug-30 12:58N 53°20' E 008°30'0 0.0
2017-Aug-30 12:28N 53°20' E 008°30'0 0.0
2017-Aug-30 12:00N 53°20' E 008°30'0 0.0
2017-Aug-30 11:30N 53°20' E 008°30'0 0.0
2017-Aug-30 11:01N 53°20' E 008°30'0 0.0
2017-Aug-30 10:30N 53°20' E 008°30'0 0.0
2017-Aug-30 10:00N 53°20' E 008°30'0 0.0
2017-Aug-30 09:30N 53°20' E 008°30'0 0.0
2017-Aug-30 09:00N 53°20' E 008°30'0 0.0
2017-Aug-30 08:30N 53°20' E 008°30'0 0.0
2017-Aug-30 08:00N 53°20' E 008°30'0 0.0
2017-Aug-30 07:30N 53°20' E 008°30'0 0.0
2017-Aug-30 07:00N 53°20' E 008°30'0 0.0
2017-Aug-30 06:30N 53°20' E 008°30'0 0.0
2017-Aug-30 06:00N 53°20' E 008°30'0 0.0
2017-Aug-30 05:30N 53°20' E 008°30'0 0.0
2017-Aug-30 05:00N 53°20' E 008°30'0 0.0
2017-Aug-30 04:30N 53°20' E 008°30'0 0.0
2017-Aug-30 04:00N 53°20' E 008°30'0 0.0
2017-Aug-30 03:31N 53°20' E 008°30'0 0.0
2017-Aug-30 03:00N 53°20' E 008°30'0 0.0
2017-Aug-30 02:30N 53°20' E 008°30'0 0.0
2017-Aug-30 02:01N 53°20' E 008°30'0 0.0
2017-Aug-30 01:30N 53°20' E 008°30'0 0.0
2017-Aug-30 01:00N 53°20' E 008°30'0 0.0
2017-Aug-30 00:30N 53°20' E 008°30'0 0.0
2017-Aug-30 00:00N 53°20' E 008°30'0 0.0
2017-Aug-29 23:30N 53°20' E 008°30'0 0.0
2017-Aug-29 23:00N 53°20' E 008°30'0 0.0
2017-Aug-29 22:30N 53°20' E 008°30'0 0.0
2017-Aug-29 22:00N 53°20' E 008°30'0 0.0
2017-Aug-29 21:30N 53°20' E 008°30'0 0.0
2017-Aug-29 21:00N 53°20' E 008°30'0 0.0
2017-Aug-29 20:30N 53°20' E 008°30'0 0.0
2017-Aug-29 20:00N 53°20' E 008°30'0 0.0
2017-Aug-29 19:31N 53°20' E 008°30'0 0.0
2017-Aug-29 19:00N 53°20' E 008°30'0 0.0
2017-Aug-29 18:30N 53°20' E 008°30'0 0.0
2017-Aug-29 18:00N 53°20' E 008°30'0 0.0
2017-Aug-29 17:30N 53°20' E 008°30'0 0.0
2017-Aug-29 17:00N 53°20' E 008°30'0 0.0
2017-Aug-29 16:30N 53°20' E 008°30'0 0.0
2017-Aug-29 16:00N 53°20' E 008°30'0 0.0
2017-Aug-29 15:30N 53°20' E 008°30'0 0.0
2017-Aug-29 15:01N 53°20' E 008°30'0 0.0
2017-Aug-29 14:30N 53°20' E 008°30'0 0.0
2017-Aug-29 14:00N 53°20' E 008°30'0 0.0
2017-Aug-29 13:30N 53°20' E 008°30'0 0.0
2017-Aug-29 13:00N 53°20' E 008°30'0 0.0
2017-Aug-29 12:30N 53°20' E 008°30'0 0.0
2017-Aug-29 11:57N 53°20' E 008°30'0 0.0
2017-Aug-29 11:30N 53°20' E 008°30'0 0.0
2017-Aug-29 11:00N 53°20' E 008°30'0 0.0
2017-Aug-29 10:30N 53°20' E 008°30'0 0.0
2017-Aug-29 09:59N 53°20' E 008°30'0 0.0
2017-Aug-29 09:27N 53°20' E 008°30'0 0.0
2017-Aug-29 09:00N 53°20' E 008°30'0 0.0
2017-Aug-29 08:29N 53°20' E 008°30'0 0.0
2017-Aug-29 08:00N 53°20' E 008°30'0 0.0
2017-Aug-29 07:30N 53°20' E 008°30'0 0.0
2017-Aug-29 07:00N 53°20' E 008°30'0 0.0
2017-Aug-29 06:30N 53°20' E 008°30'0 0.0
2017-Aug-29 06:01N 53°20' E 008°30'0 0.0
2017-Aug-29 05:30N 53°20' E 008°30'0 0.0
2017-Aug-29 05:00N 53°20' E 008°30'0 0.0
2017-Aug-29 04:30N 53°20' E 008°30'0 0.0
2017-Aug-29 04:00N 53°20' E 008°30'0 0.0
2017-Aug-29 03:30N 53°20' E 008°30'0 0.0
2017-Aug-29 02:55N 53°20' E 008°30'0 0.0
2017-Aug-29 02:30N 53°20' E 008°30'0 0.0
2017-Aug-29 02:00N 53°20' E 008°30'0 0.0
2017-Aug-29 01:30N 53°20' E 008°30'0 0.0
2017-Aug-29 01:00N 53°20' E 008°30'0 0.0
2017-Aug-29 00:30N 53°20' E 008°30'0 0.0
2017-Aug-29 00:00N 53°20' E 008°30'0 0.0
2017-Aug-28 23:30N 53°20' E 008°30'0 0.0
2017-Aug-28 23:01N 53°20' E 008°30'0 0.0
2017-Aug-28 22:30N 53°20' E 008°30'0 0.0
2017-Aug-28 22:00N 53°20' E 008°30'  
Track history (hours):
 
Tides and Currents Weather Stations Pressure Air Temp Water Temp Dewpoint Dewpoint Depression Visibility Wind Speed Wind Dir Waves Ship Positions

Mariana

Last reported at 2017-Sep-07 21:39 UTC. Time now 2017-Sep-24 14:20 UTC.
Position N 27°45' W 016°25'.
Warning: this ship's position is 16 days out of date.

Length 195 m; draft 6.9 m.

Type: Cargo ship. MMSI: 235088073.

Date/timePositionNaut miles runAvg speedWind from/ knotsBaromVisibWave heightAir tempDewpointWater temp
2017-Sep-07 21:39N 27°45' W 016°25'2215.1
2017-Sep-07 20:12N 28°05' W 016°16'315.0
2017-Sep-07 19:58N 28°08' W 016°13'714.9
2017-Sep-07 19:29N 28°13' W 016°08'715.1
2017-Sep-07 19:00N 28°19' W 016°03'714.9
2017-Sep-07 18:30N 28°25' W 015°58'714.5
2017-Sep-07 18:00N 28°30' W 015°52'714.4
2017-Sep-07 17:30N 28°36' W 015°47'713.5
2017-Sep-07 17:00N 28°42' W 015°44'713.7
2017-Sep-07 16:29N 28°49' W 015°42'713.5
2017-Sep-07 16:00N 28°55' W 015°40'713.5
2017-Sep-07 15:30N 29°02' W 015°38'713.6
2017-Sep-07 15:00N 29°08' W 015°36'713.7
2017-Sep-07 14:30N 29°15' W 015°34'713.6
2017-Sep-07 14:00N 29°21' W 015°31'813.4
2017-Sep-07 13:26N 29°29' W 015°29'613.6
2017-Sep-07 13:00N 29°34' W 015°27'1113.6
2017-Sep-07 12:12N 29°45' W 015°23'313.5
2017-Sep-07 11:59N 29°48' W 015°22'20213.9
2017-Sep-06 21:23N 33°02' W 014°16'35814.0
2017-Sep-05 19:46N 38°46' W 012°13'1114.3
2017-Sep-05 19:00N 38°57' W 012°09'814.4
2017-Sep-05 18:26N 39°04' W 012°06'614.6
2017-Sep-05 18:00N 39°10' W 012°04'914.6
2017-Sep-05 17:22N 39°19' W 012°01'614.2
2017-Sep-05 16:56N 39°25' W 011°58'1014.0
2017-Sep-05 16:14N 39°35' W 011°55'514.2
2017-Sep-05 15:51N 39°40' W 011°53'  
2017-Sep-03 11:16N 49°36' W 004°04'411.9
2017-Sep-03 10:57N 49°38' W 003°58'512.2
2017-Sep-03 10:30N 49°40' W 003°50'612.5
2017-Sep-03 10:00N 49°42' W 003°42'612.9
2017-Sep-03 09:30N 49°45' W 003°33'713.1
2017-Sep-03 09:00N 49°48' W 003°24'612.9
2017-Sep-03 08:30N 49°52' W 003°16'612.7
2017-Sep-03 08:00N 49°55' W 003°07'612.5
2017-Sep-03 07:30N 49°58' W 002°59'612.6
2017-Sep-03 07:00N 49°60' W 002°49'612.1
2017-Sep-03 06:30N 50°02' W 002°40'2411.5
2017-Sep-03 04:26N 50°07' W 002°04'511.8
2017-Sep-03 04:00N 50°09' W 001°56'612.4
2017-Sep-03 03:30N 50°10' W 001°47'713.1
2017-Sep-03 02:59N 50°12' W 001°37'713.8
2017-Sep-03 02:28N 50°14' W 001°26'714.4
2017-Sep-03 02:00N 50°16' W 001°16'3315.5
2017-Sep-02 23:54N 50°25' W 000°27'615.1
2017-Sep-02 23:30N 50°27' W 000°18'714.8
2017-Sep-02 23:00N 50°29' W 000°07'714.6
2017-Sep-02 22:30N 50°31' E 000°04'714.3
2017-Sep-02 22:00N 50°33' E 000°15'714.0
2017-Sep-02 21:30N 50°35' E 000°26'713.2
2017-Sep-02 21:00N 50°37' E 000°35'713.2
2017-Sep-02 20:30N 50°41' E 000°44'612.9
2017-Sep-02 20:00N 50°45' E 000°52'612.8
2017-Sep-02 19:30N 50°48' E 000°60'713.1
2017-Sep-02 19:00N 50°53' E 001°07'713.6
2017-Sep-02 18:30N 50°58' E 001°15'714.4
2017-Sep-02 18:00N 51°02' E 001°24'815.7
2017-Sep-02 17:30N 51°07' E 001°34'816.0
2017-Sep-02 17:00N 51°12' E 001°44'815.7
2017-Sep-02 16:31N 51°19' E 001°50'815.0
2017-Sep-02 16:00N 51°25' E 001°57'714.6
2017-Sep-02 15:31N 51°31' E 002°04'714.2
2017-Sep-02 15:00N 51°36' E 002°11'714.0
2017-Sep-02 14:30N 51°42' E 002°19'10513.6
2017-Sep-02 06:45N 53°03' E 004°08'414.5
2017-Sep-02 06:30N 53°05' E 004°13'714.1
2017-Sep-02 05:59N 53°09' E 004°23'714.1
2017-Sep-02 05:31N 53°15' E 004°28'12313.0
2017-Sep-01 20:06N 53°57' E 007°42'211.4
2017-Sep-01 19:54N 53°56' E 007°45'2 5.9
2017-Sep-01 19:30N 53°55' E 007°49'0 0.1
2017-Sep-01 18:47N 53°55' E 007°49'0 0.0
2017-Sep-01 18:23N 53°55' E 007°49'0 0.0
2017-Sep-01 09:05N 53°55' E 007°49'0 0.3
2017-Sep-01 08:53N 53°55' E 007°49'0 0.2
2017-Sep-01 08:29N 53°55' E 007°49'0 0.1
2017-Sep-01 07:53N 53°55' E 007°49'0 0.1
2017-Sep-01 06:32N 53°55' E 007°49'0 0.1
2017-Sep-01 06:11N 53°55' E 007°49'0 0.0
2017-Sep-01 05:47N 53°55' E 007°49'0 0.0
2017-Sep-01 05:20N 53°55' E 007°49'0 0.0
2017-Sep-01 04:17N 53°55' E 007°49'0 0.0
2017-Sep-01 03:59N 53°55' E 007°49'0 0.0
2017-Sep-01 03:11N 53°55' E 007°49'0 0.0
2017-Sep-01 02:56N 53°55' E 007°49'0 0.0
2017-Sep-01 02:29N 53°55' E 007°49'0 0.0
2017-Sep-01 01:59N 53°55' E 007°49'0 0.0
2017-Sep-01 01:08N 53°55' E 007°49'0 0.1
2017-Sep-01 00:56N 53°55' E 007°49'0 0.0
2017-Sep-01 00:05N 53°55' E 007°49'0 0.0
2017-Aug-31 23:56N 53°55' E 007°49'0 0.0
2017-Aug-31 23:29N 53°55' E 007°49'0 0.0
2017-Aug-31 22:59N 53°55' E 007°49'0 0.1
2017-Aug-31 22:29N 53°55' E 007°49'0 0.1
2017-Aug-31 21:59N 53°55' E 007°49'0 0.1
2017-Aug-31 21:29N 53°55' E 007°49'0 0.0
2017-Aug-31 20:44N 53°55' E 007°49'0 0.0
2017-Aug-31 14:05N 53°55' E 007°49'0 0.0
2017-Aug-31 13:47N 53°55' E 007°49'0 0.0
2017-Aug-31 13:29N 53°55' E 007°49'0 0.0
2017-Aug-31 12:35N 53°55' E 007°49'0 0.3
2017-Aug-31 12:26N 53°55' E 007°49'0 0.1
2017-Aug-31 11:56N 53°55' E 007°49'0 0.1
2017-Aug-31 11:29N 53°55' E 007°49'0 0.0
2017-Aug-31 07:50N 53°55' E 007°49'0 0.0
2017-Aug-31 07:23N 53°55' E 007°49'0 0.1
2017-Aug-31 06:50N 53°55' E 007°49'0 0.0
2017-Aug-31 06:26N 53°55' E 007°49'0 0.0
2017-Aug-31 05:59N 53°55' E 007°49'0 0.0
2017-Aug-31 05:29N 53°55' E 007°49'0 0.0
2017-Aug-31 04:32N 53°55' E 007°49'0 0.0
2017-Aug-31 04:23N 53°55' E 007°49'0 0.0
2017-Aug-31 03:56N 53°55' E 007°49'0 0.0
2017-Aug-31 03:29N 53°55' E 007°49'0 0.0
2017-Aug-31 02:53N 53°55' E 007°49'0 0.0
2017-Aug-31 02:29N 53°55' E 007°49'0 0.0
2017-Aug-31 01:59N 53°55' E 007°49'0 0.0
2017-Aug-31 01:29N 53°55' E 007°49'0 0.0
2017-Aug-31 00:53N 53°55' E 007°49'0 0.0
2017-Aug-31 00:29N 53°55' E 007°49'0 0.0
2017-Aug-30 23:59N 53°55' E 007°49'0 0.0
2017-Aug-30 23:29N 53°55' E 007°49'0 0.1
2017-Aug-30 22:56N 53°55' E 007°49'0 0.1
2017-Aug-30 22:29N 53°55' E 007°48'0 0.0
2017-Aug-30 21:56N 53°55' E 007°48'0 0.1
2017-Aug-30 21:29N 53°55' E 007°48'0 0.0
2017-Aug-30 20:59N 53°55' E 007°48'0 0.0
2017-Aug-30 20:29N 53°55' E 007°48'0 0.2
2017-Aug-30 19:59N 53°55' E 007°49'2 3.5
2017-Aug-30 19:30N 53°53' E 007°50'711.2
2017-Aug-30 18:52N 53°51' E 008°01'514.2
2017-Aug-30 18:30N 53°48' E 008°08'714.2
2017-Aug-30 18:00N 53°43' E 008°17'612.4
2017-Aug-30 17:30N 53°39' E 008°25'611.3
2017-Aug-30 17:00N 53°35' E 008°32'4 7.5
2017-Aug-30 16:30N 53°31' E 008°33'4 8.6
2017-Aug-30 16:00N 53°28' E 008°30'510.0
2017-Aug-30 15:31N 53°23' E 008°30'2 4.1
2017-Aug-30 14:58N 53°20' E 008°30'0 0.4
2017-Aug-30 14:25N 53°20' E 008°30'0 0.0
2017-Aug-30 13:58N 53°20' E 008°30'0 0.0
2017-Aug-30 13:28N 53°20' E 008°30'0 0.0
2017-Aug-30 12:58N 53°20' E 008°30'0 0.0
2017-Aug-30 12:28N 53°20' E 008°30'0 0.0
2017-Aug-30 12:00N 53°20' E 008°30'0 0.0
2017-Aug-30 11:30N 53°20' E 008°30'0 0.0
2017-Aug-30 11:01N 53°20' E 008°30'0 0.0
2017-Aug-30 10:30N 53°20' E 008°30'0 0.0
2017-Aug-30 10:00N 53°20' E 008°30'0 0.0
2017-Aug-30 09:30N 53°20' E 008°30'0 0.0
2017-Aug-30 09:00N 53°20' E 008°30'0 0.0
2017-Aug-30 08:30N 53°20' E 008°30'0 0.0
2017-Aug-30 08:00N 53°20' E 008°30'0 0.0
2017-Aug-30 07:30N 53°20' E 008°30'0 0.0
2017-Aug-30 07:00N 53°20' E 008°30'0 0.0
2017-Aug-30 06:30N 53°20' E 008°30'0 0.0
2017-Aug-30 06:00N 53°20' E 008°30'0 0.0
2017-Aug-30 05:30N 53°20' E 008°30'0 0.0
2017-Aug-30 05:00N 53°20' E 008°30'0 0.0
2017-Aug-30 04:30N 53°20' E 008°30'0 0.0
2017-Aug-30 04:00N 53°20' E 008°30'0 0.0
2017-Aug-30 03:31N 53°20' E 008°30'0 0.0
2017-Aug-30 03:00N 53°20' E 008°30'0 0.0
2017-Aug-30 02:30N 53°20' E 008°30'0 0.0
2017-Aug-30 02:01N 53°20' E 008°30'0 0.0
2017-Aug-30 01:30N 53°20' E 008°30'0 0.0
2017-Aug-30 01:00N 53°20' E 008°30'0 0.0
2017-Aug-30 00:30N 53°20' E 008°30'0 0.0
2017-Aug-30 00:00N 53°20' E 008°30'0 0.0
2017-Aug-29 23:30N 53°20' E 008°30'0 0.0
2017-Aug-29 23:00N 53°20' E 008°30'0 0.0
2017-Aug-29 22:30N 53°20' E 008°30'0 0.0
2017-Aug-29 22:00N 53°20' E 008°30'0 0.0
2017-Aug-29 21:30N 53°20' E 008°30'0 0.0
2017-Aug-29 21:00N 53°20' E 008°30'0 0.0
2017-Aug-29 20:30N 53°20' E 008°30'0 0.0
2017-Aug-29 20:00N 53°20' E 008°30'0 0.0
2017-Aug-29 19:31N 53°20' E 008°30'0 0.0
2017-Aug-29 19:00N 53°20' E 008°30'0 0.0
2017-Aug-29 18:30N 53°20' E 008°30'0 0.0
2017-Aug-29 18:00N 53°20' E 008°30'0 0.0
2017-Aug-29 17:30N 53°20' E 008°30'0 0.0
2017-Aug-29 17:00N 53°20' E 008°30'0 0.0
2017-Aug-29 16:30N 53°20' E 008°30'0 0.0
2017-Aug-29 16:00N 53°20' E 008°30'0 0.0
2017-Aug-29 15:30N 53°20' E 008°30'0 0.0
2017-Aug-29 15:01N 53°20' E 008°30'0 0.0
2017-Aug-29 14:30N 53°20' E 008°30'0 0.0
2017-Aug-29 14:00N 53°20' E 008°30'0 0.0
2017-Aug-29 13:30N 53°20' E 008°30'0 0.0
2017-Aug-29 13:00N 53°20' E 008°30'0 0.0
2017-Aug-29 12:30N 53°20' E 008°30'0 0.0
2017-Aug-29 11:57N 53°20' E 008°30'0 0.0
2017-Aug-29 11:30N 53°20' E 008°30'0 0.0
2017-Aug-29 11:00N 53°20' E 008°30'0 0.0
2017-Aug-29 10:30N 53°20' E 008°30'0 0.0
2017-Aug-29 09:59N 53°20' E 008°30'0 0.0
2017-Aug-29 09:27N 53°20' E 008°30'0 0.0
2017-Aug-29 09:00N 53°20' E 008°30'0 0.0
2017-Aug-29 08:29N 53°20' E 008°30'0 0.0
2017-Aug-29 08:00N 53°20' E 008°30'0 0.0
2017-Aug-29 07:30N 53°20' E 008°30'0 0.0
2017-Aug-29 07:00N 53°20' E 008°30'0 0.0
2017-Aug-29 06:30N 53°20' E 008°30'0 0.0
2017-Aug-29 06:01N 53°20' E 008°30'0 0.0
2017-Aug-29 05:30N 53°20' E 008°30'0 0.0
2017-Aug-29 05:00N 53°20' E 008°30'0 0.0
2017-Aug-29 04:30N 53°20' E 008°30'0 0.0
2017-Aug-29 04:00N 53°20' E 008°30'0 0.0
2017-Aug-29 03:30N 53°20' E 008°30'0 0.0
2017-Aug-29 02:55N 53°20' E 008°30'0 0.0
2017-Aug-29 02:30N 53°20' E 008°30'0 0.0
2017-Aug-29 02:00N 53°20' E 008°30'0 0.0
2017-Aug-29 01:30N 53°20' E 008°30'0 0.0
2017-Aug-29 01:00N 53°20' E 008°30'0 0.0
2017-Aug-29 00:30N 53°20' E 008°30'0 0.0
2017-Aug-29 00:00N 53°20' E 008°30'0 0.0
2017-Aug-28 23:30N 53°20' E 008°30'0 0.0
2017-Aug-28 23:01N 53°20' E 008°30'0 0.0
2017-Aug-28 22:30N 53°20' E 008°30'0 0.0
2017-Aug-28 22:00N 53°20' E 008°30'  

Dump ship's entire track history